createdAt,value
2018-07-03T00:01:08.058Z,35.10
2018-07-03T00:03:38.373Z,34.70
2018-07-03T00:06:08.436Z,35.00
2018-07-03T00:08:38.279Z,35.80
2018-07-03T00:20:34.449Z,36.00
2018-07-03T00:23:04.609Z,36.80
2018-07-03T00:25:34.879Z,36.70
2018-07-03T00:28:05.102Z,37.30
2018-07-03T00:33:05.412Z,36.90
2018-07-03T00:35:35.735Z,37.70
2018-07-03T00:38:05.760Z,38.60
2018-07-03T00:40:36.121Z,38.30
2018-07-03T00:43:06.352Z,38.50
2018-07-03T00:45:36.311Z,39.10
2018-07-03T00:48:06.575Z,38.60
2018-07-03T00:50:36.838Z,38.90
2018-07-03T00:53:06.814Z,39.30
2018-07-03T00:55:37.226Z,39.00
2018-07-03T00:58:07.461Z,38.40
2018-07-03T01:00:37.560Z,38.50
2018-07-03T01:05:37.544Z,39.30
2018-07-03T01:08:07.536Z,39.10
2018-07-03T01:10:37.409Z,38.90
2018-07-03T01:13:07.556Z,39.40
2018-07-03T01:15:37.718Z,39.00
2018-07-03T01:18:08.196Z,39.00
2018-07-03T01:23:08.353Z,38.40
2018-07-03T01:25:38.590Z,38.70
2018-07-03T01:28:08.521Z,39.20
2018-07-03T01:30:38.908Z,38.70
2018-07-03T01:33:08.964Z,39.30
2018-07-03T01:35:38.921Z,39.10
2018-07-03T01:38:09.590Z,40.00
2018-07-03T01:40:39.658Z,40.00
2018-07-03T01:43:09.931Z,39.30
2018-07-03T01:45:40.206Z,40.30
2018-07-03T01:48:10.299Z,40.50
2018-07-03T01:53:09.933Z,40.80
2018-07-03T01:55:39.984Z,41.10
2018-07-03T01:58:10.136Z,41.70
2018-07-03T02:00:40.440Z,41.60
2018-07-03T02:03:10.495Z,42.50
2018-07-03T02:05:40.352Z,42.00
2018-07-03T02:08:10.390Z,41.80
2018-07-03T02:10:40.503Z,42.50
2018-07-03T02:13:10.438Z,43.00
2018-07-03T02:15:40.482Z,43.10
2018-07-03T02:18:10.716Z,42.90
2018-07-03T02:20:40.936Z,43.30
2018-07-03T02:23:11.228Z,43.30
2018-07-03T02:25:41.399Z,43.70
2018-07-03T02:28:11.496Z,43.30
2018-07-03T02:30:41.779Z,43.70
2018-07-03T02:33:11.813Z,44.00
2018-07-03T02:35:42.185Z,43.90
2018-07-03T02:38:12.215Z,44.10
2018-07-03T02:40:42.365Z,44.60
2018-07-03T02:43:13.000Z,44.40
2018-07-03T02:45:43.372Z,45.00
2018-07-03T02:48:14.425Z,44.30
2018-07-03T02:50:45.393Z,45.10
2018-07-03T02:53:15.557Z,45.40
2018-07-03T02:55:45.665Z,44.90
2018-07-03T02:58:15.754Z,45.30
2018-07-03T03:00:46.035Z,46.60
2018-07-03T03:03:16.349Z,45.90
2018-07-03T03:05:46.465Z,46.10
2018-07-03T03:08:16.733Z,45.30
2018-07-03T03:10:46.904Z,46.50
2018-07-03T03:13:17.114Z,46.30
2018-07-03T03:15:47.071Z,45.90
2018-07-03T03:18:17.494Z,46.60
2018-07-03T03:20:47.536Z,46.60
2018-07-03T03:23:17.344Z,47.90
2018-07-03T03:25:47.841Z,47.00
2018-07-03T03:28:17.884Z,47.70
2018-07-03T03:33:17.379Z,47.40
2018-07-03T03:35:47.255Z,46.90
2018-07-03T03:38:17.090Z,46.60
2018-07-03T03:40:47.184Z,47.60
2018-07-03T03:43:17.430Z,47.40
2018-07-03T03:45:47.589Z,46.90
2018-07-03T03:48:17.809Z,47.50
2018-07-03T03:50:48.070Z,47.70
2018-07-03T03:53:18.385Z,48.20
2018-07-03T03:55:48.500Z,47.40
2018-07-03T03:58:18.616Z,47.20
2018-07-03T04:00:48.889Z,46.80
2018-07-03T04:03:19.090Z,47.50
2018-07-03T04:05:49.086Z,47.00
2018-07-03T04:08:19.760Z,47.50
2018-07-03T04:13:20.460Z,47.60
2018-07-03T04:15:50.885Z,47.90
2018-07-03T04:18:30.472Z,48.00
2018-07-03T04:21:01.039Z,48.40
2018-07-03T04:23:31.490Z,48.20
2018-07-03T04:26:01.582Z,47.70
2018-07-03T04:28:32.544Z,48.50
2018-07-03T04:31:03.200Z,48.70
2018-07-03T04:33:33.261Z,48.60
2018-07-03T04:36:03.259Z,48.40
2018-07-03T04:38:33.328Z,49.10
2018-07-03T04:41:03.995Z,48.60
2018-07-03T04:43:34.942Z,48.60
2018-07-03T04:46:05.972Z,49.20
2018-07-03T04:48:36.708Z,48.20
2018-07-03T04:51:07.308Z,49.00
2018-07-03T04:53:37.419Z,48.50
2018-07-03T04:56:07.631Z,48.20
2018-07-03T04:58:37.616Z,48.50
2018-07-03T05:01:08.246Z,48.10
2018-07-03T05:03:38.456Z,48.50
2018-07-03T05:06:08.650Z,48.20
2018-07-03T05:08:38.741Z,48.00
2018-07-03T05:11:08.883Z,48.60
2018-07-03T05:13:39.056Z,49.10
2018-07-03T05:16:09.266Z,48.80
2018-07-03T05:18:39.476Z,48.40
2018-07-03T05:21:09.433Z,48.60
2018-07-03T05:23:39.521Z,48.50
2018-07-03T05:26:10.130Z,48.30
2018-07-03T05:28:40.367Z,48.00
2018-07-03T05:31:10.596Z,47.20
2018-07-03T05:33:40.700Z,47.60
2018-07-03T05:36:10.817Z,47.70
2018-07-03T05:38:41.041Z,47.40
2018-07-03T05:41:11.324Z,47.10
2018-07-03T05:43:41.403Z,47.40
2018-07-03T05:46:11.738Z,45.80
2018-07-03T05:48:41.760Z,45.40
2018-07-03T05:51:11.722Z,45.60
2018-07-03T05:53:41.836Z,45.20
2018-07-03T05:56:12.006Z,44.40
2018-07-03T05:58:42.218Z,49.10
2018-07-03T06:01:12.476Z,48.30
2018-07-03T06:03:42.588Z,46.90
2018-07-03T06:06:12.725Z,44.70
2018-07-03T06:08:42.738Z,43.60
2018-07-03T06:11:12.879Z,43.10
2018-07-03T06:13:43.646Z,41.10
2018-07-03T06:16:14.028Z,41.10
2018-07-03T06:18:44.141Z,40.50
2018-07-03T06:21:14.253Z,40.00
2018-07-03T06:23:44.462Z,39.80
2018-07-03T06:26:14.835Z,39.00
2018-07-03T06:28:44.883Z,39.00
2018-07-03T06:31:15.297Z,38.80
2018-07-03T06:33:45.392Z,38.30
2018-07-03T06:36:15.563Z,38.30
2018-07-03T06:38:45.803Z,38.10
2018-07-03T06:41:16.021Z,37.90
2018-07-03T06:43:46.196Z,37.00
2018-07-03T06:46:16.411Z,38.10
2018-07-03T06:48:47.426Z,38.10
2018-07-03T06:51:17.741Z,37.90
2018-07-03T06:53:48.052Z,37.50
2018-07-03T06:56:18.208Z,36.00
2018-07-03T06:58:48.244Z,38.70
2018-07-03T07:01:18.576Z,38.90
2018-07-03T07:03:48.767Z,38.40
2018-07-03T07:06:18.761Z,38.90
2018-07-03T07:08:49.063Z,38.80
2018-07-03T07:11:19.317Z,38.60
2018-07-03T07:13:49.690Z,38.60
2018-07-03T07:16:19.697Z,38.10
2018-07-03T07:18:49.978Z,37.80
2018-07-03T07:21:19.969Z,38.10
2018-07-03T07:23:50.341Z,37.10
2018-07-03T07:26:20.391Z,36.80
2018-07-03T07:28:50.661Z,36.10
2018-07-03T07:31:20.641Z,35.80
2018-07-03T07:33:51.106Z,35.40
2018-07-03T07:36:21.288Z,35.10
2018-07-03T07:38:51.548Z,34.80
2018-07-03T07:41:21.622Z,34.20
2018-07-03T07:43:51.813Z,34.10
2018-07-03T07:46:22.085Z,32.90
2018-07-03T07:48:52.182Z,33.50
2018-07-03T07:51:22.370Z,33.30
2018-07-03T07:56:22.409Z,32.60
2018-07-03T07:58:52.371Z,32.00
2018-07-03T08:01:22.322Z,31.20
2018-07-03T08:03:52.416Z,31.30
2018-07-03T08:06:22.655Z,30.40
2018-07-03T08:08:52.691Z,30.70
2018-07-03T08:11:23.520Z,30.10
2018-07-03T08:13:54.043Z,30.40
2018-07-03T08:16:25.008Z,30.80
2018-07-03T08:18:55.557Z,31.50
2018-07-03T08:21:25.741Z,32.70
2018-07-03T08:23:55.922Z,32.80
2018-07-03T08:26:26.220Z,33.10
2018-07-03T08:28:56.328Z,33.20
2018-07-03T08:31:26.481Z,32.90
2018-07-03T08:33:56.527Z,33.70
2018-07-03T08:36:26.868Z,30.90
2018-07-03T08:38:56.967Z,30.10
2018-07-03T08:41:27.036Z,28.00
2018-07-03T08:43:57.213Z,27.90
2018-07-03T08:46:27.701Z,27.20
2018-07-03T08:48:57.779Z,27.50
2018-07-03T08:51:27.957Z,27.10
2018-07-03T08:53:58.236Z,27.70
2018-07-03T08:56:28.443Z,27.50
2018-07-03T08:58:58.601Z,28.60
2018-07-03T09:01:28.903Z,28.00
2018-07-03T09:03:59.112Z,27.90
2018-07-03T09:06:29.321Z,28.40
2018-07-03T09:08:59.463Z,28.80
2018-07-03T09:11:29.537Z,28.60
2018-07-03T09:13:59.910Z,28.80
2018-07-03T09:16:30.017Z,28.20
2018-07-03T09:19:00.049Z,28.20
2018-07-03T09:21:30.380Z,27.90
2018-07-03T09:24:00.802Z,28.50
2018-07-03T09:26:30.786Z,29.40
2018-07-03T09:29:00.867Z,29.10
2018-07-03T09:31:31.150Z,28.10
2018-07-03T09:34:01.732Z,28.60
2018-07-03T09:36:32.014Z,27.20
2018-07-03T09:39:02.226Z,28.30
2018-07-03T09:41:32.278Z,28.10
2018-07-03T09:44:02.333Z,27.40
2018-07-03T09:46:32.307Z,27.20
2018-07-03T09:49:02.664Z,27.20
2018-07-03T09:51:32.848Z,27.00
2018-07-03T09:54:03.307Z,28.00
2018-07-03T09:56:33.898Z,28.10
2018-07-03T09:59:04.365Z,27.30
2018-07-03T10:01:34.385Z,28.30
2018-07-03T10:04:04.300Z,28.70
2018-07-03T10:06:34.520Z,27.10
2018-07-03T10:09:06.612Z,27.10
2018-07-03T10:11:36.772Z,27.10
2018-07-03T10:14:07.748Z,26.90
2018-07-03T10:16:37.886Z,26.60
2018-07-03T10:19:08.672Z,27.30
2018-07-03T10:21:38.909Z,26.10
2018-07-03T10:24:09.228Z,25.70
2018-07-03T10:26:39.302Z,26.00
2018-07-03T10:29:09.387Z,29.30
2018-07-03T10:31:39.257Z,27.40
2018-07-03T10:34:09.304Z,28.60
2018-07-03T10:36:39.187Z,27.30
2018-07-03T10:39:12.137Z,26.80
2018-07-03T10:41:42.298Z,26.90
2018-07-03T10:44:12.843Z,28.50
2018-07-03T10:46:42.889Z,26.00
2018-07-03T10:49:12.996Z,27.30
2018-07-03T10:51:43.202Z,27.10
2018-07-03T10:54:13.713Z,26.70
2018-07-03T10:56:43.828Z,26.50
2018-07-03T10:59:14.055Z,26.30
2018-07-03T11:01:44.068Z,26.40
2018-07-03T11:04:14.286Z,26.00
2018-07-03T11:06:44.373Z,26.40
2018-07-03T11:09:14.539Z,26.60
2018-07-03T11:11:44.707Z,27.40
2018-07-03T11:14:14.541Z,27.40
2018-07-03T11:16:44.802Z,26.60
2018-07-03T11:19:14.784Z,26.20
2018-07-03T11:21:44.869Z,26.90
2018-07-03T11:24:15.815Z,26.00
2018-07-03T11:26:46.132Z,26.20
2018-07-03T11:29:16.313Z,26.90
2018-07-03T11:31:46.533Z,28.40
2018-07-03T11:34:17.079Z,25.70
2018-07-03T11:36:47.349Z,27.90
2018-07-03T11:39:17.270Z,27.80
2018-07-03T11:41:47.511Z,27.40
2018-07-03T11:44:17.544Z,26.00
2018-07-03T11:46:47.737Z,26.30
2018-07-03T11:49:17.863Z,27.10
2018-07-03T11:51:48.194Z,28.60
2018-07-03T11:56:48.428Z,27.00
2018-07-03T11:59:18.560Z,27.90
2018-07-03T12:01:49.309Z,27.20
2018-07-03T12:04:20.876Z,27.40
2018-07-03T12:06:51.751Z,26.40
2018-07-03T12:10:34.114Z,26.70
2018-07-03T12:13:04.622Z,26.80
2018-07-03T12:15:34.863Z,24.90
2018-07-03T12:18:05.087Z,24.80
2018-07-03T12:20:35.374Z,26.30
2018-07-03T12:23:05.982Z,27.20
2018-07-03T12:25:37.109Z,26.80
2018-07-03T12:28:07.944Z,26.60
2018-07-03T12:30:38.037Z,27.00
2018-07-03T12:33:08.219Z,26.40
2018-07-03T12:35:38.363Z,26.10
2018-07-03T12:38:08.620Z,26.00
2018-07-03T12:40:39.649Z,23.70
2018-07-03T12:43:09.742Z,24.30
2018-07-03T12:45:40.014Z,25.00
2018-07-03T12:48:10.133Z,25.50
2018-07-03T12:50:40.177Z,25.50
2018-07-03T12:53:10.376Z,25.80
2018-07-03T12:55:40.510Z,26.20
2018-07-03T13:03:10.571Z,25.90
2018-07-03T13:05:40.743Z,25.80
2018-07-03T13:08:11.095Z,25.20
2018-07-03T13:10:41.103Z,24.10
2018-07-03T13:13:11.454Z,24.20
2018-07-03T13:15:41.608Z,25.60
2018-07-03T13:18:16.835Z,25.10
2018-07-03T13:20:47.110Z,24.30
2018-07-03T13:23:17.394Z,23.40
2018-07-03T13:25:48.038Z,24.30
2018-07-03T13:28:18.382Z,23.90
2018-07-03T13:30:48.586Z,23.50
2018-07-03T13:33:18.858Z,24.20
2018-07-03T13:35:48.986Z,24.40
2018-07-03T13:38:19.136Z,24.30
2018-07-03T13:40:49.488Z,23.90
2018-07-03T13:43:19.568Z,24.20
2018-07-03T13:45:49.834Z,24.40
2018-07-03T13:48:19.963Z,23.80
2018-07-03T13:50:50.064Z,23.60
2018-07-03T13:55:50.048Z,23.20
2018-07-03T13:58:19.927Z,24.70
2018-07-03T14:00:51.173Z,24.00
2018-07-03T14:03:22.144Z,23.90
2018-07-03T14:05:53.409Z,24.80
2018-07-03T14:08:25.639Z,24.90
2018-07-03T14:10:56.119Z,25.30
2018-07-03T14:20:34.868Z,25.30
2018-07-03T14:23:05.249Z,25.00
2018-07-03T14:25:35.254Z,25.10
2018-07-03T14:28:05.544Z,24.70
2018-07-03T14:30:36.568Z,24.20
2018-07-03T14:33:06.914Z,25.30
2018-07-03T14:35:37.233Z,24.30
2018-07-03T14:38:08.188Z,24.30
2018-07-03T14:40:38.487Z,24.20
2018-07-03T14:43:08.693Z,22.60
2018-07-03T14:45:38.962Z,23.90
2018-07-03T14:48:09.782Z,24.10
2018-07-03T14:50:40.092Z,23.40
2018-07-03T14:55:40.390Z,23.50
2018-07-03T14:58:10.841Z,24.50
2018-07-03T15:00:40.988Z,24.60
2018-07-03T15:03:11.224Z,25.30
2018-07-03T15:08:11.335Z,24.90
2018-07-03T15:10:41.693Z,24.20
2018-07-03T15:13:11.909Z,23.90
2018-07-03T15:15:42.163Z,24.40
2018-07-03T15:18:13.430Z,23.70
2018-07-03T15:20:43.594Z,22.60
2018-07-03T15:23:14.154Z,21.60
2018-07-03T15:25:44.398Z,21.10
2018-07-03T15:28:15.025Z,22.20
2018-07-03T15:30:45.228Z,21.50
2018-07-03T15:33:15.349Z,22.50
2018-07-03T15:35:45.767Z,23.10
2018-07-03T15:38:16.107Z,23.30
2018-07-03T15:40:46.390Z,23.60
2018-07-03T15:43:16.309Z,23.40
2018-07-03T15:45:46.424Z,23.20
2018-07-03T15:48:16.549Z,23.10
2018-07-03T15:50:47.777Z,22.80
2018-07-03T15:53:18.519Z,22.80
2018-07-03T15:55:49.015Z,22.90
2018-07-03T16:12:54.623Z,20.80
2018-07-03T16:15:25.041Z,20.40
2018-07-03T16:17:55.565Z,20.70
2018-07-03T16:20:30.720Z,20.40
2018-07-03T16:25:31.242Z,20.30
2018-07-03T16:28:01.610Z,20.60
2018-07-03T16:30:31.976Z,20.30
2018-07-03T16:33:02.329Z,19.60
2018-07-03T16:35:39.386Z,18.50
2018-07-03T16:38:09.951Z,18.20
2018-07-03T16:40:40.044Z,19.00
2018-07-03T16:43:10.322Z,20.00
2018-07-03T16:45:40.847Z,19.50
2018-07-03T16:48:12.854Z,19.00
2018-07-03T16:50:43.288Z,18.40
2018-07-03T16:53:14.806Z,17.60
2018-07-03T16:55:45.126Z,18.00
2018-07-03T16:58:15.451Z,18.30
2018-07-03T17:00:45.514Z,18.60
2018-07-03T17:03:15.758Z,18.70
2018-07-03T17:05:46.161Z,18.50
2018-07-03T17:08:16.470Z,18.80
2018-07-03T17:10:47.099Z,19.20
2018-07-03T17:13:17.384Z,17.90
2018-07-03T17:15:47.624Z,18.90
2018-07-03T17:18:17.806Z,19.10
2018-07-03T17:20:48.290Z,19.40
2018-07-03T17:23:19.033Z,19.10
2018-07-03T17:25:49.467Z,19.60
2018-07-03T17:28:19.720Z,19.10
2018-07-03T17:30:50.233Z,19.30
2018-07-03T17:33:20.718Z,19.10
2018-07-03T17:35:50.900Z,18.90
2018-07-03T17:38:21.028Z,19.80
2018-07-03T17:41:07.100Z,20.10
2018-07-03T17:44:22.269Z,18.70
2018-07-03T17:46:52.398Z,19.20
2018-07-03T17:49:22.650Z,19.20
2018-07-03T17:51:53.234Z,19.50
2018-07-03T17:54:23.905Z,19.20
2018-07-03T17:56:54.317Z,18.80
2018-07-03T17:59:24.939Z,19.10
2018-07-03T18:04:25.179Z,19.10
2018-07-03T18:06:55.337Z,19.50
2018-07-03T18:09:26.034Z,19.20
2018-07-03T18:11:56.688Z,19.80
2018-07-03T18:14:27.068Z,19.80
2018-07-03T18:16:57.973Z,20.10
2018-07-03T18:19:33.898Z,20.10
2018-07-03T18:22:04.323Z,20.20
2018-07-03T18:24:34.907Z,20.40
2018-07-03T18:27:05.509Z,20.40
2018-07-03T18:29:35.976Z,20.20
2018-07-03T18:32:06.770Z,20.70
2018-07-03T18:34:37.616Z,21.00
2018-07-03T18:37:08.133Z,21.00
2018-07-03T18:39:39.261Z,20.70
2018-07-03T18:42:09.981Z,21.00
2018-07-03T18:44:40.763Z,21.60
2018-07-03T18:47:11.029Z,21.70
2018-07-03T18:49:41.378Z,22.20
2018-07-03T18:52:11.953Z,22.60
2018-07-03T18:54:42.466Z,24.00
2018-07-03T18:57:13.296Z,24.50
2018-07-03T18:59:43.713Z,24.40
2018-07-03T19:02:14.187Z,24.60
2018-07-03T19:04:44.912Z,25.10
2018-07-03T19:07:15.478Z,24.60
2018-07-03T19:09:45.848Z,24.70
2018-07-03T19:12:16.506Z,24.60
2018-07-03T19:14:46.885Z,25.00
2018-07-03T19:17:17.093Z,24.90
2018-07-03T19:19:48.349Z,25.20
2018-07-03T19:22:19.728Z,25.20
2018-07-03T19:24:50.166Z,25.30
2018-07-03T19:27:20.721Z,25.70
2018-07-03T19:29:51.095Z,25.90
2018-07-03T19:32:21.284Z,25.70
2018-07-03T19:37:21.719Z,25.90
2018-07-03T19:39:52.136Z,26.00
2018-07-03T19:42:23.065Z,26.10
2018-07-03T19:44:53.495Z,26.10
2018-07-03T19:47:23.590Z,26.70
2018-07-03T19:49:54.167Z,27.20
2018-07-03T19:52:24.444Z,27.50
2018-07-03T19:57:27.041Z,28.30
2018-07-03T20:02:27.607Z,28.60
2018-07-03T20:04:58.821Z,29.20
2018-07-03T20:07:30.848Z,29.80
2018-07-03T20:10:00.963Z,30.40
2018-07-03T20:12:32.012Z,31.10
2018-07-03T20:15:02.308Z,31.70
2018-07-03T20:20:04.026Z,32.30
2018-07-03T20:22:34.967Z,32.50
2018-07-03T20:25:05.539Z,33.00
2018-07-03T20:27:36.227Z,33.40
2018-07-03T20:30:07.880Z,33.90
2018-07-03T20:32:38.707Z,34.10
2018-07-03T20:35:08.719Z,34.10
2018-07-03T20:37:55.709Z,33.80
2018-07-03T20:40:26.859Z,34.20
2018-07-03T20:42:58.035Z,34.50
2018-07-03T20:45:27.923Z,34.70
2018-07-03T20:47:58.071Z,35.00
2018-07-03T20:50:27.933Z,34.80
2018-07-03T20:52:57.859Z,34.80
2018-07-03T20:55:27.681Z,34.70
2018-07-03T20:57:58.249Z,34.90
2018-07-03T21:10:33.806Z,35.20
2018-07-03T21:13:05.008Z,35.60
2018-07-03T21:15:36.378Z,36.90
2018-07-03T21:18:07.294Z,36.50
2018-07-03T21:20:38.821Z,35.80
2018-07-03T21:23:09.563Z,35.90
2018-07-03T21:25:39.822Z,35.20
2018-07-03T21:28:10.072Z,34.30
2018-07-03T21:30:40.336Z,34.50
2018-07-03T21:33:10.578Z,34.10
2018-07-03T21:35:40.682Z,34.20
2018-07-03T21:38:11.557Z,34.30
2018-07-03T21:40:41.814Z,34.20
2018-07-03T21:43:12.323Z,33.80
2018-07-03T21:45:42.521Z,34.20
2018-07-03T21:48:13.018Z,34.50
2018-07-03T21:50:43.035Z,34.60
2018-07-03T21:53:13.053Z,33.90
2018-07-03T21:55:43.236Z,34.60
2018-07-03T21:58:13.701Z,35.00
2018-07-03T22:00:43.977Z,34.90
2018-07-03T22:03:14.217Z,35.70
2018-07-03T22:05:44.725Z,35.80
2018-07-03T22:08:14.881Z,36.30
2018-07-03T22:10:45.081Z,36.60
2018-07-03T22:13:15.406Z,36.10
2018-07-03T22:15:45.541Z,37.30
2018-07-03T22:18:15.777Z,37.60
2018-07-03T22:20:46.065Z,38.00
2018-07-03T22:23:16.150Z,38.40
2018-07-03T22:25:46.360Z,38.90
2018-07-03T22:28:16.626Z,39.60
2018-07-03T22:30:46.866Z,40.10
2018-07-03T22:33:16.943Z,40.70
2018-07-03T22:35:47.188Z,41.40
2018-07-03T22:38:17.390Z,41.90
2018-07-03T22:40:47.235Z,42.10
2018-07-03T22:43:17.611Z,42.70
2018-07-03T22:45:47.724Z,42.80
2018-07-03T22:48:18.766Z,43.10
2018-07-03T22:50:49.880Z,43.40
2018-07-03T22:53:21.044Z,43.60
2018-07-03T22:55:51.790Z,43.80
2018-07-03T22:58:22.239Z,44.00
2018-07-03T23:00:52.445Z,44.20
2018-07-03T23:03:22.640Z,44.60
2018-07-03T23:05:52.673Z,44.80
2018-07-03T23:08:22.699Z,45.10
2018-07-03T23:10:52.934Z,45.00
2018-07-03T23:13:23.264Z,45.20
2018-07-03T23:15:53.818Z,45.50
2018-07-03T23:18:24.330Z,45.50
2018-07-03T23:23:24.158Z,46.10
2018-07-03T23:25:54.526Z,46.30
2018-07-03T23:28:24.460Z,46.40
2018-07-03T23:30:54.595Z,46.50
2018-07-03T23:33:24.669Z,46.80
2018-07-03T23:35:54.775Z,46.80
2018-07-03T23:38:24.876Z,47.20
2018-07-03T23:40:55.221Z,47.30
2018-07-03T23:43:25.266Z,48.00
2018-07-03T23:45:58.545Z,47.30
2018-07-03T23:48:45.254Z,47.60
2018-07-03T23:51:32.249Z,47.80
2018-07-03T23:54:18.865Z,47.90
2018-07-03T23:57:05.762Z,48.10
2018-07-03T23:59:52.420Z,48.30
